createdAt,value
2022-11-16T00:01:40.897Z,7.07
2022-11-16T00:04:09.558Z,7.28
2022-11-16T00:06:35.845Z,7.50
2022-11-16T00:09:22.088Z,6.75
2022-11-16T00:11:51.080Z,7.83
2022-11-16T00:14:19.144Z,6.97
2022-11-16T00:16:45.534Z,6.97
2022-11-16T00:19:12.893Z,7.15
2022-11-16T00:21:39.879Z,7.18
2022-11-16T00:24:07.056Z,8.17
2022-11-16T00:26:33.357Z,7.53
2022-11-16T00:28:59.713Z,8.00
2022-11-16T00:31:26.298Z,6.97
2022-11-16T00:33:52.666Z,7.10
2022-11-16T00:36:18.981Z,7.10
2022-11-16T00:38:45.335Z,7.43
2022-11-16T00:41:11.634Z,6.95
2022-11-16T00:43:38.183Z,7.45
2022-11-16T00:46:05.229Z,7.35
2022-11-16T00:48:32.068Z,6.53
2022-11-16T00:50:58.667Z,7.18
2022-11-16T00:53:24.983Z,7.25
2022-11-16T00:55:51.611Z,7.03
2022-11-16T00:58:17.897Z,7.32
2022-11-16T01:00:44.246Z,7.00
2022-11-16T01:03:10.771Z,6.75
2022-11-16T01:05:37.152Z,6.60
2022-11-16T01:08:03.782Z,7.65
2022-11-16T01:10:30.488Z,7.55
2022-11-16T01:12:57.115Z,7.20
2022-11-16T01:15:25.655Z,7.90
2022-11-16T01:17:53.734Z,8.02
2022-11-16T01:20:22.766Z,7.35
2022-11-16T01:22:49.142Z,7.80
2022-11-16T01:25:16.392Z,7.07
2022-11-16T01:27:43.669Z,7.70
2022-11-16T01:30:12.811Z,7.40
2022-11-16T01:32:39.168Z,7.00
2022-11-16T01:35:06.065Z,6.82
2022-11-16T01:37:33.211Z,7.13
2022-11-16T01:39:59.574Z,6.93
2022-11-16T01:42:28.309Z,7.10
2022-11-16T01:44:58.213Z,6.90
2022-11-16T01:47:24.617Z,6.95
2022-11-16T01:49:57.998Z,7.13
2022-11-16T01:52:28.982Z,6.32
2022-11-16T01:54:55.642Z,6.68
2022-11-16T01:57:32.563Z,6.75
2022-11-16T02:00:00.784Z,6.70
2022-11-16T02:02:27.425Z,6.43
2022-11-16T02:04:55.269Z,6.50
2022-11-16T02:07:54.965Z,7.47
2022-11-16T02:10:41.343Z,6.32
2022-11-16T02:13:32.367Z,6.53
2022-11-16T02:16:14.460Z,6.60
2022-11-16T02:18:50.507Z,7.00
2022-11-16T02:21:40.983Z,6.93
2022-11-16T02:24:43.709Z,6.93
2022-11-16T02:27:28.424Z,7.25
2022-11-16T02:29:56.523Z,6.13
2022-11-16T02:32:42.346Z,5.97
2022-11-16T02:35:32.447Z,6.07
2022-11-16T02:38:09.202Z,6.22
2022-11-16T02:40:39.114Z,6.00
2022-11-16T02:43:12.000Z,5.80
2022-11-16T02:45:42.759Z,6.00
2022-11-16T02:48:14.942Z,6.20
2022-11-16T02:50:42.611Z,6.07
2022-11-16T02:53:08.954Z,5.85
2022-11-16T02:55:36.504Z,6.30
2022-11-16T02:58:09.686Z,6.10
2022-11-16T03:00:44.573Z,5.57
2022-11-16T03:03:25.873Z,5.53
2022-11-16T03:06:06.942Z,6.28
2022-11-16T03:08:49.696Z,5.83
2022-11-16T03:11:35.147Z,6.32
2022-11-16T03:14:14.641Z,6.30
2022-11-16T03:16:46.079Z,6.28
2022-11-16T03:19:17.102Z,5.57
2022-11-16T03:22:23.142Z,5.80
2022-11-16T03:24:50.508Z,6.20
2022-11-16T03:27:44.909Z,5.72
2022-11-16T03:30:18.142Z,5.18
2022-11-16T03:32:56.704Z,6.13
2022-11-16T03:35:31.894Z,5.00
2022-11-16T03:38:00.654Z,5.63
2022-11-16T03:40:30.706Z,6.20
2022-11-16T03:43:00.036Z,5.85
2022-11-16T03:45:26.827Z,6.00
2022-11-16T03:47:53.118Z,6.47
2022-11-16T03:50:19.890Z,6.07
2022-11-16T03:52:46.344Z,6.25
2022-11-16T03:55:12.653Z,6.40
2022-11-16T03:57:38.992Z,5.38
2022-11-16T04:00:06.896Z,5.83
2022-11-16T04:02:33.194Z,6.15
2022-11-16T04:05:18.377Z,5.65
2022-11-16T04:08:03.562Z,5.63
2022-11-16T04:10:48.239Z,4.93
2022-11-16T04:13:34.604Z,5.07
2022-11-16T04:16:19.304Z,4.75
2022-11-16T04:19:04.058Z,4.68
2022-11-16T04:21:56.390Z,4.45
2022-11-16T04:24:27.914Z,4.22
2022-11-16T04:27:17.550Z,4.27
2022-11-16T04:29:43.943Z,4.03
2022-11-16T04:32:30.268Z,3.20
2022-11-16T04:35:15.426Z,3.47
2022-11-16T04:37:52.320Z,3.25
2022-11-16T04:40:21.587Z,2.50
2022-11-16T04:42:54.125Z,2.63
2022-11-16T04:45:40.454Z,2.95
2022-11-16T04:48:06.876Z,2.90
2022-11-16T04:50:33.660Z,3.15
2022-11-16T04:53:00.168Z,3.43
2022-11-16T04:55:26.710Z,2.83
2022-11-16T04:57:53.339Z,2.88
2022-11-16T05:00:20.519Z,3.20
2022-11-16T05:02:47.201Z,2.97
2022-11-16T05:05:13.948Z,3.70
2022-11-16T05:07:40.274Z,3.08
2022-11-16T05:10:07.607Z,2.70
2022-11-16T05:12:34.951Z,2.80
2022-11-16T05:15:01.730Z,3.28
2022-11-16T05:17:29.198Z,3.13
2022-11-16T05:20:14.115Z,2.75
2022-11-16T05:22:40.489Z,3.13
2022-11-16T05:25:08.938Z,3.72
2022-11-16T05:27:35.992Z,3.75
2022-11-16T05:30:02.322Z,2.73
2022-11-16T05:32:28.621Z,3.17
2022-11-16T05:34:55.316Z,3.63
2022-11-16T05:37:23.138Z,3.20
2022-11-16T05:39:49.521Z,3.30
2022-11-16T05:42:15.885Z,2.83
2022-11-16T05:44:42.253Z,3.58
2022-11-16T05:47:08.546Z,3.50
2022-11-16T05:49:34.838Z,4.25
2022-11-16T05:52:01.219Z,3.88
2022-11-16T05:54:27.586Z,3.93
2022-11-16T05:56:54.700Z,3.75
2022-11-16T05:59:22.254Z,3.75
2022-11-16T06:01:49.219Z,4.00
2022-11-16T06:04:15.818Z,5.03
2022-11-16T06:06:42.548Z,5.57
2022-11-16T06:09:11.408Z,6.47
2022-11-16T06:11:38.137Z,5.70
2022-11-16T06:14:05.483Z,6.32
2022-11-16T06:16:31.776Z,6.68
2022-11-16T06:18:59.589Z,6.67
2022-11-16T06:21:26.247Z,6.32
2022-11-16T06:23:52.542Z,7.72
2022-11-16T06:26:18.886Z,7.20
2022-11-16T06:28:45.208Z,7.85
2022-11-16T06:31:11.583Z,6.90
2022-11-16T06:33:37.921Z,8.18
2022-11-16T06:36:04.637Z,7.65
2022-11-16T06:38:31.682Z,6.95
2022-11-16T06:40:59.186Z,7.90
2022-11-16T06:43:26.642Z,7.97
2022-11-16T06:45:55.766Z,7.47
2022-11-16T06:48:22.535Z,7.88
2022-11-16T06:50:49.863Z,6.95
2022-11-16T06:53:16.754Z,7.20
2022-11-16T06:55:43.142Z,7.43
2022-11-16T06:58:09.696Z,7.00
2022-11-16T07:00:36.438Z,6.28
2022-11-16T07:03:03.673Z,6.57
2022-11-16T07:05:31.195Z,6.53
2022-11-16T07:07:57.970Z,6.23
2022-11-16T07:10:25.278Z,6.05
2022-11-16T07:12:51.654Z,4.80
2022-11-16T07:15:18.218Z,5.20
2022-11-16T07:17:44.528Z,5.05
2022-11-16T07:20:12.004Z,4.90
2022-11-16T07:22:38.462Z,5.47
2022-11-16T07:25:05.202Z,4.28
2022-11-16T07:27:31.538Z,4.20
2022-11-16T07:29:58.022Z,4.10
2022-11-16T07:32:26.682Z,4.57
2022-11-16T07:34:53.371Z,3.85
2022-11-16T07:37:19.820Z,3.67
2022-11-16T07:39:46.214Z,4.47
2022-11-16T07:42:12.634Z,3.85
2022-11-16T07:44:39.140Z,3.47
2022-11-16T07:47:05.870Z,3.28
2022-11-16T07:49:32.218Z,3.03
2022-11-16T07:51:58.702Z,3.55
2022-11-16T07:54:25.020Z,3.10
2022-11-16T07:56:51.400Z,2.37
2022-11-16T07:59:17.851Z,2.58
2022-11-16T08:01:47.622Z,2.40
2022-11-16T08:04:15.439Z,2.15
2022-11-16T08:06:41.749Z,2.00
2022-11-16T08:09:09.321Z,2.00
2022-11-16T08:11:35.709Z,2.17
2022-11-16T08:14:02.173Z,1.60
2022-11-16T08:16:28.630Z,1.80
2022-11-16T08:18:55.008Z,2.30
2022-11-16T08:21:21.496Z,1.43
2022-11-16T08:23:47.874Z,1.70
2022-11-16T08:26:19.342Z,1.80
2022-11-16T08:28:47.918Z,2.03
2022-11-16T08:31:17.853Z,1.55
2022-11-16T08:33:44.729Z,2.10
2022-11-16T08:36:14.465Z,1.67
2022-11-16T08:38:41.088Z,2.00
2022-11-16T08:41:08.278Z,1.90
2022-11-16T08:43:35.693Z,2.05
2022-11-16T08:46:02.192Z,2.10
2022-11-16T08:48:28.495Z,1.92
2022-11-16T08:51:16.496Z,2.50
2022-11-16T08:53:41.306Z,2.00
2022-11-16T08:56:10.116Z,1.90
2022-11-16T08:58:36.549Z,2.07
2022-11-16T09:01:11.064Z,1.90
2022-11-16T09:03:38.793Z,2.75
2022-11-16T09:08:47.263Z,2.38
2022-11-16T09:11:16.635Z,1.90
2022-11-16T09:13:44.311Z,1.30
2022-11-16T09:16:11.019Z,1.80
2022-11-16T09:18:38.124Z,1.50
2022-11-16T09:21:04.962Z,2.00
2022-11-16T09:23:31.791Z,1.70
2022-11-16T09:26:02.613Z,1.58
2022-11-16T09:28:29.377Z,1.92
2022-11-16T09:31:00.908Z,1.80
2022-11-16T09:33:32.027Z,1.60
2022-11-16T09:36:09.659Z,1.93
2022-11-16T09:39:13.262Z,1.63
2022-11-16T09:42:07.236Z,1.55
2022-11-16T09:44:33.573Z,1.48
2022-11-16T09:47:01.978Z,1.65
2022-11-16T09:49:39.156Z,1.40
2022-11-16T09:52:14.210Z,1.27
2022-11-16T09:54:44.529Z,1.65
2022-11-16T09:57:14.579Z,1.52
2022-11-16T09:59:44.909Z,1.80
2022-11-16T10:02:26.590Z,1.00
2022-11-16T10:05:14.727Z,1.40
2022-11-16T10:07:48.307Z,1.20
2022-11-16T10:10:38.192Z,1.33
2022-11-16T10:13:29.815Z,1.30
2022-11-16T10:16:18.356Z,0.93
2022-11-16T10:18:56.182Z,1.13
2022-11-16T10:21:36.087Z,1.10
2022-11-16T10:24:16.422Z,1.25
2022-11-16T10:27:20.779Z,1.42
2022-11-16T10:29:54.546Z,1.20
2022-11-16T10:32:30.883Z,1.48
2022-11-16T10:35:06.014Z,1.45
2022-11-16T10:37:38.671Z,1.30
2022-11-16T10:40:16.285Z,0.98
2022-11-16T10:42:45.279Z,1.47
2022-11-16T10:45:20.834Z,1.00
2022-11-16T10:47:58.348Z,0.95
2022-11-16T10:50:32.562Z,2.65
2022-11-16T10:52:59.885Z,1.10
2022-11-16T10:55:28.563Z,0.97
2022-11-16T10:57:57.952Z,1.02
2022-11-16T11:00:36.472Z,1.45
2022-11-16T11:03:02.863Z,1.42
2022-11-16T11:05:29.836Z,1.13
2022-11-16T11:08:06.111Z,1.20
2022-11-16T11:10:36.834Z,1.55
2022-11-16T11:13:04.986Z,0.95
2022-11-16T11:15:32.027Z,1.20
2022-11-16T11:18:23.256Z,1.40
2022-11-16T11:20:51.202Z,0.60
2022-11-16T11:23:23.724Z,1.30
2022-11-16T11:25:58.433Z,0.95
2022-11-16T11:28:33.701Z,1.10
2022-11-16T11:31:03.650Z,1.35
2022-11-16T11:33:34.809Z,1.27
2022-11-16T11:36:18.551Z,1.75
2022-11-16T11:39:08.289Z,1.38
2022-11-16T11:41:38.924Z,1.35
2022-11-16T11:44:14.679Z,1.70
2022-11-16T11:47:35.317Z,0.80
2022-11-16T11:49:40.521Z,0.90
2022-11-16T11:52:17.417Z,1.63
2022-11-16T11:54:47.666Z,0.90
2022-11-16T11:57:20.529Z,0.80
2022-11-16T11:59:47.712Z,0.70
2022-11-16T12:02:42.399Z,0.60
2022-11-16T12:05:35.161Z,1.45
2022-11-16T12:08:18.012Z,1.10
2022-11-16T12:10:49.175Z,1.00
2022-11-16T12:13:35.038Z,1.10
2022-11-16T12:16:12.186Z,0.80
2022-11-16T12:18:38.474Z,0.98
2022-11-16T12:21:15.122Z,0.85
2022-11-16T12:24:03.462Z,0.90
2022-11-16T12:26:46.185Z,1.50
2022-11-16T12:29:16.834Z,1.20
2022-11-16T12:32:14.170Z,1.13
2022-11-16T12:35:05.574Z,0.98
2022-11-16T12:37:41.182Z,0.98
2022-11-16T12:40:10.260Z,1.00
2022-11-16T12:42:36.517Z,1.73
2022-11-16T12:45:32.621Z,0.77
2022-11-16T12:48:16.251Z,0.85
2022-11-16T12:51:39.284Z,1.10
2022-11-16T12:55:19.186Z,0.80
2022-11-16T12:58:24.143Z,1.00
2022-11-16T13:04:07.532Z,0.63
2022-11-16T13:06:59.654Z,0.57
2022-11-16T13:10:01.752Z,0.80
2022-11-16T13:12:31.704Z,0.57
2022-11-16T13:15:31.177Z,0.75
2022-11-16T13:18:07.331Z,0.60
2022-11-16T13:20:58.745Z,1.40
2022-11-16T13:23:40.322Z,0.53
2022-11-16T13:26:42.740Z,0.50
2022-11-16T13:29:57.910Z,0.60
2022-11-16T13:32:53.036Z,0.60
2022-11-16T13:35:34.352Z,0.65
2022-11-16T13:38:09.855Z,0.63
2022-11-16T13:40:36.715Z,0.90
2022-11-16T13:43:09.147Z,0.80
2022-11-16T13:45:49.121Z,0.77
2022-11-16T13:48:42.838Z,0.85
2022-11-16T13:51:43.572Z,0.87
2022-11-16T13:54:50.044Z,0.50
2022-11-16T13:57:25.737Z,1.20
2022-11-16T14:00:06.205Z,0.88
2022-11-16T14:02:40.366Z,0.52
2022-11-16T14:05:17.769Z,0.40
2022-11-16T14:07:59.433Z,0.60
2022-11-16T14:10:47.054Z,1.00
2022-11-16T14:13:40.360Z,0.60
2022-11-16T14:16:22.172Z,0.98
2022-11-16T14:19:04.325Z,0.70
2022-11-16T14:24:50.848Z,0.50
2022-11-16T14:27:38.663Z,0.70
2022-11-16T14:30:43.931Z,0.80
2022-11-16T14:33:32.089Z,0.50
2022-11-16T14:36:16.218Z,1.05
2022-11-16T14:38:51.250Z,0.80
2022-11-16T14:41:30.171Z,0.50
2022-11-16T14:43:59.749Z,0.88
2022-11-16T14:46:40.563Z,0.97
2022-11-16T14:49:20.055Z,0.68
2022-11-16T14:51:55.038Z,0.55
2022-11-16T14:54:53.544Z,0.73
2022-11-16T14:57:24.420Z,1.27
2022-11-16T15:00:44.509Z,0.63
2022-11-16T15:03:14.984Z,0.60
2022-11-16T15:05:50.516Z,0.68
2022-11-16T15:08:42.094Z,0.75
2022-11-16T15:11:24.319Z,1.00
2022-11-16T15:13:51.688Z,0.40
2022-11-16T15:16:20.092Z,1.10
2022-11-16T15:19:12.217Z,1.05
2022-11-16T15:21:38.622Z,0.88
2022-11-16T15:26:51.525Z,0.93
2022-11-16T15:29:19.684Z,0.77
2022-11-16T15:31:47.177Z,0.90
2022-11-16T15:34:16.668Z,0.95
2022-11-16T15:36:43.867Z,0.85
2022-11-16T15:39:15.494Z,1.20
2022-11-16T15:41:42.866Z,1.65
2022-11-16T15:44:15.838Z,1.50
2022-11-16T15:46:48.749Z,1.75
2022-11-16T15:49:35.931Z,2.08
2022-11-16T15:52:02.473Z,1.20
2022-11-16T15:54:54.429Z,1.70
2022-11-16T15:57:22.837Z,2.25
2022-11-16T15:59:57.212Z,2.00
2022-11-16T16:02:27.575Z,1.63
2022-11-16T16:04:54.364Z,1.47
2022-11-16T16:07:36.641Z,1.85
2022-11-16T16:10:18.218Z,2.00
2022-11-16T16:12:50.897Z,1.40
2022-11-16T16:15:36.389Z,1.60
2022-11-16T16:18:11.385Z,2.20
2022-11-16T16:20:37.889Z,2.15
2022-11-16T16:23:13.286Z,2.38
2022-11-16T16:25:39.569Z,1.58
2022-11-16T16:28:05.869Z,1.45
2022-11-16T16:30:34.585Z,1.90
2022-11-16T16:33:01.651Z,1.52
2022-11-16T16:35:28.564Z,1.50
2022-11-16T16:38:00.718Z,1.40
2022-11-16T16:40:28.403Z,1.20
2022-11-16T16:42:55.778Z,1.57
2022-11-16T16:45:37.223Z,1.48
2022-11-16T16:48:03.896Z,1.88
2022-11-16T16:50:30.233Z,1.52
2022-11-16T16:52:56.569Z,1.75
2022-11-16T16:55:23.280Z,1.30
2022-11-16T16:57:49.625Z,1.40
2022-11-16T17:00:16.530Z,1.55
2022-11-16T17:02:42.966Z,2.00
2022-11-16T17:05:09.782Z,2.20
2022-11-16T17:07:36.246Z,1.80
2022-11-16T17:10:02.627Z,1.50
2022-11-16T17:12:29.002Z,1.70
2022-11-16T17:14:55.496Z,2.08
2022-11-16T17:17:24.223Z,1.35
2022-11-16T17:19:51.502Z,1.40
2022-11-16T17:22:18.990Z,1.73
2022-11-16T17:24:45.379Z,1.80
2022-11-16T17:27:11.905Z,1.30
2022-11-16T17:29:38.227Z,1.60
2022-11-16T17:32:04.837Z,1.63
2022-11-16T17:34:31.722Z,2.03
2022-11-16T17:36:58.173Z,2.35
2022-11-16T17:39:24.924Z,1.90
2022-11-16T17:41:51.746Z,1.70
2022-11-16T17:44:21.802Z,1.63
2022-11-16T17:46:48.557Z,2.00
2022-11-16T17:49:15.859Z,1.85
2022-11-16T17:51:42.528Z,2.15
2022-11-16T17:54:09.114Z,1.95
2022-11-16T17:56:35.513Z,3.00
2022-11-16T17:59:01.971Z,2.45
2022-11-16T18:01:28.505Z,2.42
2022-11-16T18:03:55.154Z,2.40
2022-11-16T18:06:23.564Z,2.63
2022-11-16T18:08:49.869Z,2.13
2022-11-16T18:11:24.365Z,2.40
2022-11-16T18:14:00.985Z,1.92
2022-11-16T18:16:30.031Z,1.92
2022-11-16T18:18:58.470Z,2.10
2022-11-16T18:21:25.591Z,2.00
2022-11-16T18:23:52.366Z,1.95
2022-11-16T18:26:21.515Z,2.20
2022-11-16T18:28:48.541Z,1.80
2022-11-16T18:31:16.970Z,1.98
2022-11-16T18:33:44.246Z,2.03
2022-11-16T18:36:11.949Z,2.45
2022-11-16T18:38:38.809Z,2.47
2022-11-16T18:41:11.184Z,2.45
2022-11-16T18:43:42.560Z,1.80
2022-11-16T18:46:09.101Z,2.33
2022-11-16T18:48:35.435Z,2.28
2022-11-16T18:51:03.872Z,2.72
2022-11-16T18:53:32.045Z,1.83
2022-11-16T18:55:58.795Z,2.10
2022-11-16T18:58:49.298Z,2.40
2022-11-16T19:01:14.341Z,1.75
2022-11-16T19:03:41.045Z,1.55
2022-11-16T19:06:08.718Z,1.30
2022-11-16T19:08:36.907Z,1.48
2022-11-16T19:11:08.574Z,1.70
2022-11-16T19:13:35.471Z,1.77
2022-11-16T19:16:02.087Z,1.77
2022-11-16T19:18:29.409Z,1.48
2022-11-16T19:21:07.090Z,1.73
2022-11-16T19:23:42.828Z,1.53
2022-11-16T19:26:09.901Z,1.70
2022-11-16T19:28:37.718Z,1.67
2022-11-16T19:31:13.270Z,1.38
2022-11-16T19:33:40.384Z,2.15
2022-11-16T19:36:11.755Z,2.17
2022-11-16T19:38:38.234Z,1.42
2022-11-16T19:41:05.225Z,1.50
2022-11-16T19:43:32.237Z,1.35
2022-11-16T19:46:07.118Z,1.55
2022-11-16T19:48:34.325Z,1.40
2022-11-16T19:51:08.521Z,1.38
2022-11-16T19:53:35.952Z,1.10
2022-11-16T19:56:02.986Z,1.38
2022-11-16T19:58:29.343Z,1.15
2022-11-16T20:01:04.079Z,1.23
2022-11-16T20:03:31.363Z,1.30
2022-11-16T20:06:15.955Z,1.58
2022-11-16T20:08:46.586Z,1.23
2022-11-16T20:11:18.029Z,1.90
2022-11-16T20:13:45.207Z,1.27
2022-11-16T20:16:13.032Z,1.40
2022-11-16T20:18:40.621Z,1.25
2022-11-16T20:21:08.240Z,1.55
2022-11-16T20:23:35.536Z,1.30
2022-11-16T20:26:06.544Z,1.10
2022-11-16T20:28:41.135Z,1.25
2022-11-16T20:31:09.633Z,1.02
2022-11-16T20:33:36.449Z,1.15
2022-11-16T20:36:05.355Z,1.10
2022-11-16T20:38:33.514Z,0.97
2022-11-16T20:41:09.696Z,1.00
2022-11-16T20:43:36.559Z,1.25
2022-11-16T20:46:03.186Z,1.25
2022-11-16T20:48:29.516Z,1.52
2022-11-16T20:50:55.854Z,1.23
2022-11-16T20:53:22.473Z,1.23
2022-11-16T20:55:49.679Z,1.63
2022-11-16T20:58:22.429Z,1.25
2022-11-16T21:00:49.746Z,1.25
2022-11-16T21:03:16.573Z,1.43
2022-11-16T21:05:44.223Z,1.27
2022-11-16T21:08:12.073Z,1.00
2022-11-16T21:10:39.579Z,1.60
2022-11-16T21:13:25.203Z,1.30
2022-11-16T21:15:59.594Z,1.07
2022-11-16T21:18:30.493Z,1.08
2022-11-16T21:20:59.666Z,1.10
2022-11-16T21:23:29.026Z,1.25
2022-11-16T21:25:55.995Z,1.70
2022-11-16T21:28:25.539Z,1.13
2022-11-16T21:31:00.981Z,1.27
2022-11-16T21:33:28.057Z,1.13
2022-11-16T21:35:54.906Z,1.63
2022-11-16T21:38:24.395Z,1.48
2022-11-16T21:40:51.156Z,1.13
2022-11-16T21:43:17.738Z,1.23
2022-11-16T21:45:45.566Z,1.75
2022-11-16T21:48:12.062Z,1.58
2022-11-16T21:50:38.799Z,1.80
2022-11-16T21:53:06.933Z,1.33
2022-11-16T21:55:33.621Z,1.73
2022-11-16T21:58:00.453Z,1.92
2022-11-16T22:00:27.754Z,2.03
2022-11-16T22:02:54.122Z,1.50
2022-11-16T22:05:39.207Z,1.50
2022-11-16T22:08:08.075Z,1.60
2022-11-16T22:10:34.970Z,1.52
2022-11-16T22:13:01.568Z,1.95
2022-11-16T22:15:27.930Z,1.73
2022-11-16T22:17:54.221Z,1.73
2022-11-16T22:20:21.081Z,1.83
2022-11-16T22:22:47.421Z,2.15
2022-11-16T22:25:13.966Z,1.67
2022-11-16T22:27:58.715Z,1.83
2022-11-16T22:30:26.877Z,1.70
2022-11-16T22:32:54.416Z,1.67
2022-11-16T22:35:20.831Z,1.92
2022-11-16T22:37:47.168Z,1.92
2022-11-16T22:40:17.639Z,1.75
2022-11-16T22:42:44.282Z,1.57
2022-11-16T22:45:10.574Z,1.90
2022-11-16T22:47:36.968Z,2.40
2022-11-16T22:50:03.794Z,1.70
2022-11-16T22:52:30.855Z,1.70
2022-11-16T22:54:57.189Z,1.73
2022-11-16T22:57:23.487Z,1.55
2022-11-16T22:59:50.943Z,1.73
2022-11-16T23:02:17.395Z,1.70
2022-11-16T23:04:43.677Z,1.73
2022-11-16T23:07:10.043Z,2.00
2022-11-16T23:09:36.466Z,1.52
2022-11-16T23:12:21.405Z,2.42
2022-11-16T23:15:06.287Z,1.83
2022-11-16T23:17:32.574Z,1.80
2022-11-16T23:20:28.450Z,1.73
2022-11-16T23:23:13.755Z,1.45
2022-11-16T23:25:59.111Z,1.88
2022-11-16T23:28:25.846Z,1.63
2022-11-16T23:30:52.162Z,1.88
2022-11-16T23:33:38.527Z,1.63
2022-11-16T23:36:05.190Z,2.13
2022-11-16T23:38:31.481Z,2.00
2022-11-16T23:40:57.863Z,1.70
2022-11-16T23:43:42.642Z,2.08
2022-11-16T23:46:10.129Z,1.70
2022-11-16T23:48:36.428Z,2.67
2022-11-16T23:51:02.778Z,1.60
2022-11-16T23:53:29.089Z,2.08
2022-11-16T23:56:05.790Z,1.65
2022-11-16T23:58:32.581Z,1.80
